Time;durP1;ratioP1;P1;durP2;ratioP2;P2;SDS_P1;SDS_P2;PMS_P1;PMS_P2;Temp;Humidity;BMP_temperature;BMP_pressure;BME280_temperature;BME280_humidity;BME280_pressure;Samples;Min_cycle;Max_cycle;Signal;HPM_P1;HPM_P2
2023/05/02 00:00:02;;;;;;;21.00;8.50;;;;;;;7.32;58.79;101823.45;107535;1252;97838;-61
2023/05/02 00:02:52;;;;;;;15.90;8.90;;;;;;;7.29;58.94;101820.39;107549;1251;99492;-61
2023/05/02 00:05:21;;;;;;;20.10;8.00;;;;;;;7.26;59.00;101823.27;107592;1251;111318;-60
2023/05/02 00:07:50;;;;;;;21.90;7.80;;;;;;;7.20;59.31;101825.91;107551;1251;109703;-61
2023/05/02 00:10:19;;;;;;;18.80;7.90;;;;;;;7.14;59.45;101831.42;107530;1251;106929;-61
2023/05/02 00:12:47;;;;;;;15.80;8.30;;;;;;;7.13;59.45;101828.84;107493;1251;97816;-61
2023/05/02 00:15:16;;;;;;;19.70;9.40;;;;;;;7.13;59.26;101827.03;107497;1252;97821;-61
2023/05/02 00:17:45;;;;;;;20.50;8.70;;;;;;;7.11;59.32;101831.41;107369;1254;112516;-62
2023/05/02 00:20:14;;;;;;;20.50;8.20;;;;;;;7.07;59.48;101830.60;107534;1250;109682;-60
2023/05/02 00:22:42;;;;;;;23.70;7.80;;;;;;;7.02;59.72;101831.38;107566;1251;107455;-61
2023/05/02 00:25:15;;;;;;;22.60;8.30;;;;;;;6.96;59.66;101834.23;107557;1251;98018;-62
2023/05/02 00:27:49;;;;;;;22.90;8.80;;;;;;;6.86;59.96;101840.66;107598;1251;98584;-61
2023/05/02 00:30:19;;;;;;;19.90;8.50;;;;;;;6.81;60.22;101846.12;107456;1251;111393;-61
2023/05/02 00:32:48;;;;;;;21.10;8.50;;;;;;;6.77;60.26;101850.27;107547;1253;108618;-61
2023/05/02 00:35:17;;;;;;;28.40;9.60;;;;;;;6.75;59.91;101849.66;107602;1253;108728;-61
2023/05/02 00:37:46;;;;;;;23.80;8.20;;;;;;;6.74;60.08;101853.78;107576;1251;97844;-62
2023/05/02 00:40:15;;;;;;;18.60;8.80;;;;;;;6.72;60.12;101855.17;107629;1251;98335;-59
2023/05/02 00:42:46;;;;;;;19.70;8.80;;;;;;;6.63;60.35;101857.80;107670;1251;112171;-64
2023/05/02 00:45:15;;;;;;;22.50;9.40;;;;;;;6.57;60.97;101860.95;107634;1251;108863;-61
2023/05/02 00:47:44;;;;;;;27.80;9.90;;;;;;;6.53;61.03;101864.05;107594;1251;108303;-63
2023/05/02 00:50:13;;;;;;;14.80;7.00;;;;;;;6.52;61.55;101865.00;107633;1251;97831;-61
2023/05/02 00:52:44;;;;;;;17.50;8.70;;;;;;;6.53;61.61;101863.48;107624;1253;98395;-63
2023/05/02 00:55:12;;;;;;;18.30;7.60;;;;;;;6.56;61.72;101862.06;107634;1253;112285;-61
2023/05/02 00:57:43;;;;;;;21.90;8.00;;;;;;;6.58;61.63;101865.17;107597;1251;109612;-60
2023/05/02 01:00:12;;;;;;;19.40;8.60;;;;;;;6.61;61.75;101865.55;107531;1251;108818;-60
2023/05/02 01:02:57;;;;;;;19.00;7.80;;;;;;;6.61;61.82;101864.68;107589;1251;97968;-60
2023/05/02 01:05:45;;;;;;;19.70;8.00;;;;;;;6.55;61.94;101859.82;107655;1251;97769;-62
2023/05/02 01:08:38;;;;;;;22.30;8.70;;;;;;;6.50;61.90;101859.71;107605;1254;110614;-62
2023/05/02 01:11:38;;;;;;;20.30;8.90;;;;;;;6.47;62.17;101856.00;107602;1253;110297;-61
2023/05/02 01:14:10;;;;;;;21.10;8.20;;;;;;;6.46;62.06;101856.42;107468;1254;108774;-60
2023/05/02 01:16:40;;;;;;;25.10;9.50;;;;;;;6.45;62.29;101857.54;107479;1251;97933;-60
2023/05/02 01:19:43;;;;;;;19.80;8.30;;;;;;;6.42;62.10;101854.48;107569;1253;97815;-60
2023/05/02 01:22:21;;;;;;;17.20;8.40;;;;;;;6.43;62.01;101859.04;107528;1251;112248;-60
2023/05/02 01:24:59;;;;;;;21.90;8.60;;;;;;;6.38;62.09;101853.39;107546;1250;109098;-60
2023/05/02 01:27:34;;;;;;;30.60;9.30;;;;;;;6.34;62.47;101851.88;107494;1251;107172;-60
2023/05/02 01:30:05;;;;;;;18.10;9.20;;;;;;;6.31;62.44;101853.63;107462;1251;97798;-61
2023/05/02 01:32:38;;;;;;;20.20;8.20;;;;;;;6.31;62.40;101858.66;107613;1251;98372;-61
2023/05/02 01:35:10;;;;;;;23.10;8.70;;;;;;;6.30;62.45;101858.52;107592;1251;114088;-61
2023/05/02 01:37:40;;;;;;;20.10;9.00;;;;;;;6.29;62.46;101858.02;107552;1254;109610;-61
2023/05/02 01:40:10;;;;;;;24.50;11.50;;;;;;;6.28;62.46;101852.70;107483;1252;107943;-61
2023/05/02 01:42:41;;;;;;;24.70;9.70;;;;;;;6.26;62.80;101850.84;107597;1251;97818;-60
2023/05/02 01:45:11;;;;;;;21.10;8.30;;;;;;;6.23;62.56;101847.42;107558;1251;97729;-60
2023/05/02 01:47:42;;;;;;;20.40;8.60;;;;;;;6.20;62.40;101849.77;107600;1251;112405;-61
2023/05/02 01:50:15;;;;;;;17.60;8.10;;;;;;;6.13;62.71;101850.83;107501;1250;109291;-61
2023/05/02 01:52:46;;;;;;;20.80;9.20;;;;;;;6.11;62.74;101847.19;107567;1251;107563;-61
2023/05/02 01:55:16;;;;;;;21.50;9.00;;;;;;;6.07;62.46;101847.54;107540;1251;97794;-61
2023/05/02 01:57:49;;;;;;;26.70;8.80;;;;;;;6.02;63.03;101850.33;107584;1251;97841;-61
2023/05/02 02:00:20;;;;;;;22.70;8.30;;;;;;;6.00;62.84;101847.40;107598;1251;111355;-60
2023/05/02 02:02:52;;;;;;;21.70;8.40;;;;;;;6.00;62.83;101847.42;107626;1251;109721;-61
2023/05/02 02:05:23;;;;;;;24.60;9.20;;;;;;;5.99;62.92;101851.52;107573;1251;107276;-60
2023/05/02 02:07:51;;;;;;;26.20;9.50;;;;;;;5.96;63.14;101851.65;107518;1254;97922;-61
2023/05/02 02:10:21;;;;;;;22.40;8.80;;;;;;;5.94;63.09;101853.55;107576;1251;97764;-61
2023/05/02 02:12:53;;;;;;;16.50;9.20;;;;;;;5.93;62.95;101851.45;107526;1254;112364;-61
2023/05/02 02:15:27;;;;;;;24.00;11.10;;;;;;;5.92;62.89;101852.75;107603;1254;109065;-60
2023/05/02 02:18:03;;;;;;;27.30;9.00;;;;;;;5.90;62.87;101851.77;107601;1250;107870;-60
2023/05/02 02:20:34;;;;;;;21.80;9.30;;;;;;;5.87;62.78;101854.07;107511;1251;97924;-62
2023/05/02 02:23:07;;;;;;;27.00;9.90;;;;;;;5.87;62.64;101850.36;107659;1251;97737;-60
2023/05/02 02:25:36;;;;;;;26.20;9.20;;;;;;;5.88;62.73;101851.21;107629;1250;112208;-61
2023/05/02 02:28:06;;;;;;;24.20;9.20;;;;;;;5.89;62.85;101849.00;107524;1251;108668;-59
2023/05/02 02:30:35;;;;;;;22.20;9.90;;;;;;;5.89;62.70;101848.85;107528;1253;107166;-59
2023/05/02 02:33:05;;;;;;;21.50;9.30;;;;;;;5.87;62.66;101852.16;107577;1251;98002;-61
2023/05/02 02:35:41;;;;;;;25.70;9.60;;;;;;;5.81;62.41;101854.55;107592;1251;98376;-60
2023/05/02 02:38:26;;;;;;;19.80;8.40;;;;;;;5.70;62.78;101855.47;107522;1251;112120;-60
2023/05/02 02:41:05;;;;;;;24.60;10.00;;;;;;;5.64;62.97;101855.77;107566;1250;110026;-60
2023/05/02 02:44:08;;;;;;;28.00;9.60;;;;;;;5.60;62.71;101853.48;107576;1251;108424;-61
2023/05/02 02:46:47;;;;;;;22.60;9.30;;;;;;;5.60;63.20;101859.70;107511;1251;97806;-61
2023/05/02 02:49:41;;;;;;;24.20;9.60;;;;;;;5.62;62.98;101859.42;107574;1254;99522;-59
2023/05/02 02:52:29;;;;;;;26.70;9.20;;;;;;;5.60;62.74;101865.23;107581;1251;111179;-60
2023/05/02 02:55:06;;;;;;;19.00;8.50;;;;;;;5.55;62.51;101861.75;107657;1251;109382;-61
2023/05/02 02:58:06;;;;;;;18.00;9.20;;;;;;;5.49;62.51;101864.73;107520;1257;108363;-60
2023/05/02 03:00:37;;;;;;;23.20;10.20;;;;;;;5.39;62.52;101869.13;107230;1251;97940;-60
2023/05/02 03:03:06;;;;;;;30.30;9.50;;;;;;;5.33;62.60;101864.94;107649;1251;97872;-61
2023/05/02 03:05:35;;;;;;;26.90;12.20;;;;;;;5.28;62.48;101868.77;107666;1251;110888;-60
2023/05/02 03:08:04;;;;;;;26.40;10.10;;;;;;;5.24;62.71;101869.33;107567;1251;109085;-60
2023/05/02 03:10:32;;;;;;;24.20;9.40;;;;;;;5.22;63.14;101872.44;107576;1254;108757;-60
2023/05/02 03:13:01;;;;;;;23.20;9.30;;;;;;;5.19;63.01;101870.77;107563;1251;98395;-61
2023/05/02 03:15:46;;;;;;;26.40;11.80;;;;;;;5.19;62.78;101873.66;107581;1253;97835;-61
2023/05/02 03:18:15;;;;;;;27.30;9.50;;;;;;;5.17;62.94;101874.09;107634;1250;112289;-61
2023/05/02 03:20:44;;;;;;;22.80;9.20;;;;;;;5.16;63.01;101872.35;107642;1254;109264;-61
2023/05/02 03:23:13;;;;;;;20.20;9.70;;;;;;;5.15;62.92;101875.95;107600;1251;108597;-62
2023/05/02 03:25:41;;;;;;;21.90;9.20;;;;;;;5.14;63.03;101877.27;107634;1251;97880;-61
2023/05/02 03:28:11;;;;;;;23.00;10.60;;;;;;;5.11;62.89;101880.96;107590;1251;98462;-60
2023/05/02 03:30:40;;;;;;;27.30;9.90;;;;;;;5.08;63.01;101883.22;107554;1254;111891;-59
2023/05/02 03:33:09;;;;;;;18.20;10.20;;;;;;;5.08;63.31;101881.98;107607;1251;108780;-59
2023/05/02 03:35:41;;;;;;;18.70;9.00;;;;;;;5.08;63.31;101888.04;107625;1251;108083;-59
2023/05/02 03:38:10;;;;;;;21.20;9.10;;;;;;;5.07;63.45;101892.70;107608;1251;97844;-60
2023/05/02 03:40:39;;;;;;;19.30;9.70;;;;;;;5.07;63.42;101897.87;107641;1254;97709;-61
2023/05/02 03:43:10;;;;;;;16.60;9.20;;;;;;;5.07;63.47;101895.91;107585;1251;111707;-61
2023/05/02 03:45:39;;;;;;;59.30;11.60;;;;;;;5.07;63.67;101902.83;107556;1251;109016;-60
2023/05/02 03:48:08;;;;;;;17.80;9.10;;;;;;;5.08;63.91;101906.15;107565;1251;107878;-61
2023/05/02 03:50:37;;;;;;;19.70;10.20;;;;;;;5.11;63.88;101913.85;107558;1251;97972;-60
2023/05/02 03:53:07;;;;;;;24.00;9.20;;;;;;;5.14;64.34;101912.65;107628;1251;97714;-61
2023/05/02 03:55:41;;;;;;;20.60;9.10;;;;;;;5.21;64.55;101914.08;107618;1256;113151;-58
2023/05/02 03:58:11;;;;;;;25.40;9.40;;;;;;;5.30;64.47;101917.06;107609;1251;110146;-61
2023/05/02 04:00:39;;;;;;;21.90;9.30;;;;;;;5.38;64.56;101918.99;107559;1251;108640;-60
2023/05/02 04:03:08;;;;;;;25.20;9.20;;;;;;;5.44;64.64;101915.81;107614;1251;97824;-61
2023/05/02 04:05:40;;;;;;;21.80;9.30;;;;;;;5.51;65.03;101913.73;107658;1251;97703;-61
2023/05/02 04:08:10;;;;;;;22.90;10.00;;;;;;;5.57;65.14;101912.92;107557;1251;111775;-60
2023/05/02 04:10:38;;;;;;;19.60;10.00;;;;;;;5.64;65.12;101917.70;107587;1251;110084;-61
2023/05/02 04:13:09;;;;;;;26.20;10.10;;;;;;;5.72;65.17;101925.34;107571;1254;108613;-61
2023/05/02 04:15:41;;;;;;;22.10;9.40;;;;;;;5.81;64.92;101924.52;107597;1254;97816;-60
2023/05/02 04:18:09;;;;;;;25.40;8.90;;;;;;;5.90;65.12;101921.39;107627;1255;97717;-60
2023/05/02 04:20:38;;;;;;;19.00;8.00;;;;;;;6.00;64.95;101921.29;107517;1251;111122;-59
2023/05/02 04:23:07;;;;;;;23.40;8.80;;;;;;;6.11;65.35;101922.70;107621;1251;110072;-60
2023/05/02 04:25:36;;;;;;;20.00;7.80;;;;;;;6.21;65.25;101917.91;107600;1251;107506;-60
2023/05/02 04:28:05;;;;;;;32.80;7.90;;;;;;;6.31;65.06;101925.45;107572;1251;97787;-61
2023/05/02 04:30:35;;;;;;;27.70;8.40;;;;;;;6.40;65.07;101928.52;107608;1253;97691;-61
2023/05/02 04:33:08;;;;;;;22.70;8.90;;;;;;;6.49;64.70;101927.16;107618;1250;111908;-60
2023/05/02 04:35:40;;;;;;;28.50;8.90;;;;;;;6.56;64.74;101929.64;107662;1254;108635;-60
2023/05/02 04:38:12;;;;;;;29.10;7.60;;;;;;;6.64;64.58;101926.17;107559;1252;108713;-59
2023/05/02 04:40:41;;;;;;;25.50;8.70;;;;;;;6.72;64.45;101926.45;107554;1253;97924;-60
2023/05/02 04:43:10;;;;;;;26.50;7.90;;;;;;;6.81;64.37;101921.17;107602;1251;97701;-61
2023/05/02 04:45:57;;;;;;;25.50;7.70;;;;;;;6.85;64.02;101919.34;107602;1253;111970;-61
2023/05/02 04:48:30;;;;;;;25.50;8.00;;;;;;;6.86;64.10;101925.02;107574;1251;108805;-62
2023/05/02 04:50:59;;;;;;;25.00;9.40;;;;;;;6.88;64.07;101921.69;107473;1251;107615;-65
2023/05/02 04:53:30;;;;;;;41.00;9.90;;;;;;;6.92;63.99;101921.33;107578;1254;97921;-61
2023/05/02 04:55:59;;;;;;;32.20;10.70;;;;;;;6.97;63.86;101927.27;107664;1251;97825;-61
2023/05/02 04:58:28;;;;;;;52.50;10.20;;;;;;;7.02;64.26;101929.67;107571;1251;111647;-62
2023/05/02 05:01:01;;;;;;;57.90;10.20;;;;;;;7.10;64.38;101930.11;107586;1251;109215;-62
2023/05/02 05:03:30;;;;;;;60.10;11.40;;;;;;;7.18;64.14;101926.82;107618;1251;107618;-61
2023/05/02 05:05:58;;;;;;;51.40;9.90;;;;;;;7.22;63.80;101923.96;107694;1251;97831;-61
2023/05/02 05:08:28;;;;;;;385.20;33.10;;;;;;;7.25;63.88;101923.39;107610;1251;97821;-63
2023/05/02 05:10:57;;;;;;;112.30;15.20;;;;;;;7.31;64.17;101919.68;107652;1251;111910;-65
2023/05/02 05:13:27;;;;;;;45.60;10.10;;;;;;;7.39;64.12;101923.38;107621;1251;109586;-61
2023/05/02 05:16:02;;;;;;;55.70;10.00;;;;;;;7.46;63.92;101926.36;107463;1251;107644;-63
2023/05/02 05:18:40;;;;;;;35.70;9.50;;;;;;;7.53;64.14;101927.55;107607;1251;97805;-60
2023/05/02 05:21:11;;;;;;;51.20;10.20;;;;;;;7.59;63.97;101927.20;107614;1251;98382;-61
2023/05/02 05:23:44;;;;;;;47.90;8.80;;;;;;;7.65;63.60;101925.44;107643;1251;111302;-60
2023/05/02 05:26:17;;;;;;;36.50;11.20;;;;;;;7.71;63.41;101922.92;107676;1251;109856;-60
2023/05/02 05:28:49;;;;;;;52.00;12.00;;;;;;;7.77;63.37;101923.85;107525;1254;105932;-60
2023/05/02 05:31:18;;;;;;;51.30;12.30;;;;;;;7.84;63.39;101925.23;107509;1253;97834;-60
2023/05/02 05:33:50;;;;;;;40.50;11.60;;;;;;;7.95;63.48;101927.63;107612;1255;97724;-61
2023/05/02 05:36:19;;;;;;;33.40;10.40;;;;;;;8.04;63.26;101929.44;107626;1250;112280;-61
2023/05/02 05:38:51;;;;;;;40.10;9.50;;;;;;;8.13;63.08;101926.76;107586;1251;109019;-62
2023/05/02 05:41:21;;;;;;;57.40;10.50;;;;;;;8.21;62.87;101924.16;107604;1251;107987;-62
2023/05/02 05:43:55;;;;;;;43.70;9.80;;;;;;;8.28;62.80;101919.24;107491;1251;97902;-61
2023/05/02 05:46:26;;;;;;;44.40;8.90;;;;;;;8.37;62.79;101923.34;107606;1251;97751;-63
2023/05/02 05:48:55;;;;;;;26.40;8.20;;;;;;;8.48;63.05;101920.02;107607;1251;111264;-60
2023/05/02 05:51:26;;;;;;;37.30;7.80;;;;;;;8.58;63.09;101920.14;107576;1251;109234;-61
2023/05/02 05:53:57;;;;;;;36.40;7.80;;;;;;;8.67;62.90;101924.59;107484;1254;106807;-60
2023/05/02 05:56:27;;;;;;;26.70;7.30;;;;;;;8.76;62.58;101928.67;107508;1253;97873;-61
2023/05/02 05:59:06;;;;;;;45.70;8.30;;;;;;;8.85;62.39;101925.45;107532;1251;97794;-61
2023/05/02 06:01:34;;;;;;;25.00;7.60;;;;;;;8.93;62.06;101927.83;107534;1254;111863;-62
2023/05/02 06:04:07;;;;;;;19.70;5.90;;;;;;;9.01;61.82;101924.23;107542;1251;109691;-65
2023/05/02 06:06:43;;;;;;;39.30;7.70;;;;;;;9.13;61.52;101926.00;107355;1251;106406;-62
2023/05/02 06:09:14;;;;;;;29.80;6.70;;;;;;;9.25;61.05;101928.85;107508;1251;97818;-61
2023/05/02 06:11:42;;;;;;;28.10;6.30;;;;;;;9.34;60.86;101932.52;107598;1251;97860;-61
2023/05/02 06:14:11;;;;;;;30.40;5.80;;;;;;;9.44;60.68;101933.14;107643;1252;111916;-62
2023/05/02 06:16:41;;;;;;;28.30;6.70;;;;;;;9.53;60.68;101933.85;107605;1254;110031;-61
2023/05/02 06:19:10;;;;;;;30.70;6.50;;;;;;;9.63;60.52;101929.80;107545;1254;107120;-61
2023/05/02 06:21:39;;;;;;;31.00;5.90;;;;;;;9.73;60.64;101925.35;107585;1254;97904;-62
2023/05/02 06:24:08;;;;;;;38.10;7.50;;;;;;;9.86;60.66;101923.92;107501;1258;97739;-61
2023/05/02 06:26:37;;;;;;;42.10;7.80;;;;;;;9.98;60.55;101926.00;107698;1251;111019;-61
2023/05/02 06:29:06;;;;;;;32.00;6.90;;;;;;;10.11;60.66;101929.11;107571;1256;110234;-63
2023/05/02 06:31:34;;;;;;;22.10;5.90;;;;;;;10.23;60.65;101919.14;107529;1254;109167;-62
2023/05/02 06:34:02;;;;;;;33.20;5.90;;;;;;;10.41;60.38;101923.49;107645;1251;97697;-61
2023/05/02 06:36:31;;;;;;;41.60;5.80;;;;;;;10.57;60.22;101920.77;107580;1251;98343;-63
2023/05/02 06:39:00;;;;;;;17.10;5.70;;;;;;;10.73;60.06;101922.15;107464;1253;111412;-63
2023/05/02 06:41:28;;;;;;;15.90;5.00;;;;;;;10.91;59.53;101919.77;107558;1254;109076;-62
2023/05/02 06:43:57;;;;;;;26.00;6.60;;;;;;;11.07;59.22;101916.48;107485;1251;108766;-63
2023/05/02 06:46:29;;;;;;;40.00;12.30;;;;;;;11.25;58.81;101916.82;107582;1251;97816;-63
2023/05/02 06:48:57;;;;;;;26.30;6.40;;;;;;;11.42;58.52;101917.77;107602;1254;98383;-63
2023/05/02 06:51:26;;;;;;;15.00;5.20;;;;;;;11.58;58.06;101919.97;107535;1254;111894;-63
2023/05/02 06:53:54;;;;;;;19.00;5.00;;;;;;;11.75;57.56;101919.64;107565;1251;109272;-63
2023/05/02 06:56:27;;;;;;;12.00;4.90;;;;;;;11.86;57.26;101915.68;107566;1251;107841;-61
2023/05/02 06:58:55;;;;;;;13.10;3.80;;;;;;;12.00;56.91;101916.31;107626;1251;97982;-61
2023/05/02 07:01:24;;;;;;;10.80;3.60;;;;;;;12.14;56.59;101916.86;107602;1251;97720;-61
2023/05/02 07:03:53;;;;;;;16.60;4.20;;;;;;;12.30;56.16;101915.45;107574;1251;112322;-63
2023/05/02 07:06:22;;;;;;;20.40;5.20;;;;;;;12.49;55.96;101919.02;107640;1251;108805;-62
2023/05/02 07:08:51;;;;;;;17.90;5.20;;;;;;;12.68;55.32;101914.84;107511;1253;108567;-63
2023/05/02 07:11:20;;;;;;;17.80;4.30;;;;;;;12.84;55.18;101918.98;107562;1253;97829;-62
2023/05/02 07:13:54;;;;;;;28.90;4.30;;;;;;;12.98;54.70;101919.64;107531;1251;97851;-61
2023/05/02 07:16:23;;;;;;;21.40;4.50;;;;;;;13.12;54.41;101915.49;107644;1254;112208;-62
2023/05/02 07:18:52;;;;;;;15.80;4.10;;;;;;;13.25;53.87;101913.35;107509;1254;109708;-61
2023/05/02 07:21:20;;;;;;;24.60;4.70;;;;;;;13.41;52.83;101912.63;107513;1251;108324;-62
2023/05/02 07:23:48;;;;;;;13.30;4.10;;;;;;;13.62;52.62;101914.69;107583;1252;97796;-61
2023/05/02 07:26:18;;;;;;;15.90;3.90;;;;;;;13.81;52.00;101914.56;107559;1251;97898;-62
2023/05/02 07:28:47;;;;;;;19.60;3.90;;;;;;;13.99;49.49;101913.37;107540;1255;111275;-61
2023/05/02 07:31:15;;;;;;;16.40;4.30;;;;;;;14.16;49.86;101921.87;107554;1251;109798;-64
2023/05/02 07:33:46;;;;;;;16.70;4.00;;;;;;;14.29;49.45;101912.59;107544;1251;109293;-61
2023/05/02 07:36:14;;;;;;;16.10;2.80;;;;;;;14.42;46.81;101911.66;107572;1251;97821;-63
2023/05/02 07:38:43;;;;;;;13.50;2.40;;;;;;;14.54;44.02;101911.02;107554;1254;98335;-62
2023/05/02 07:41:13;;;;;;;6.70;2.30;;;;;;;14.65;44.89;101909.52;107508;1254;112626;-61
2023/05/02 07:43:41;;;;;;;3.20;1.20;;;;;;;14.78;40.95;101906.29;107554;1251;110193;-63
2023/05/02 07:46:10;;;;;;;5.20;1.50;;;;;;;14.93;36.80;101902.75;107638;1255;107729;-61
2023/05/02 07:48:41;;;;;;;9.80;1.60;;;;;;;15.08;36.54;101904.68;107536;1252;97886;-58
2023/05/02 07:51:11;;;;;;;8.40;1.60;;;;;;;15.27;35.69;101902.42;107640;1254;97720;-64
2023/05/02 07:53:40;;;;;;;10.20;1.30;;;;;;;15.45;36.43;101901.57;107628;1254;112107;-62
2023/05/02 07:56:08;;;;;;;9.60;2.00;;;;;;;15.62;34.85;101909.02;107541;1254;109673;-62
2023/05/02 07:58:37;;;;;;;6.50;1.20;;;;;;;15.80;33.33;101913.51;107483;1254;108211;-62
2023/05/02 08:01:05;;;;;;;10.00;1.60;;;;;;;15.94;33.91;101912.84;106869;1254;851994;-61
2023/05/02 08:03:34;;;;;;;11.30;1.30;;;;;;;16.09;34.90;101908.71;107490;1254;97707;-62
2023/05/02 08:06:03;;;;;;;9.70;1.20;;;;;;;16.25;33.09;101913.16;107541;1256;112290;-61
2023/05/02 08:08:32;;;;;;;10.60;1.50;;;;;;;16.35;33.07;101913.13;107364;1254;109661;-60
2023/05/02 08:11:00;;;;;;;10.40;1.30;;;;;;;16.48;33.05;101913.92;107588;1251;108246;-61
2023/05/02 08:13:29;;;;;;;7.50;1.60;;;;;;;16.62;33.94;101918.55;107584;1254;97844;-60
2023/05/02 08:15:57;;;;;;;12.40;1.80;;;;;;;16.79;33.08;101921.59;107612;1251;97900;-60
2023/05/02 08:18:26;;;;;;;9.20;1.40;;;;;;;16.96;31.27;101923.79;107549;1254;112459;-61
2023/05/02 08:20:57;;;;;;;12.50;1.60;;;;;;;17.05;31.00;101920.22;107622;1255;109960;-60
2023/05/02 08:23:25;;;;;;;4.40;1.50;;;;;;;17.14;30.41;101918.08;107595;1255;108849;-60
2023/05/02 08:25:53;;;;;;;4.20;1.50;;;;;;;17.22;30.60;101915.30;107573;1250;97837;-62
2023/05/02 08:28:22;;;;;;;3.90;1.40;;;;;;;17.30;31.07;101906.00;107516;1254;98370;-60
2023/05/02 08:30:51;;;;;;;11.60;1.90;;;;;;;17.39;30.79;101907.83;107615;1251;111900;-60
2023/05/02 08:33:19;;;;;;;11.00;1.60;;;;;;;17.49;30.97;101908.48;107606;1254;109783;-61
2023/05/02 08:35:48;;;;;;;9.50;1.40;;;;;;;17.68;30.53;101908.40;107564;1252;108281;-60
2023/05/02 08:38:18;;;;;;;10.00;1.60;;;;;;;17.86;30.43;101912.74;107593;1254;97918;-63
2023/05/02 08:40:47;;;;;;;7.50;1.80;;;;;;;18.04;29.43;101908.26;107606;1251;98325;-62
2023/05/02 08:43:16;;;;;;;12.70;1.70;;;;;;;18.16;29.86;101906.94;107402;1253;111359;-62
2023/05/02 08:45:51;;;;;;;12.40;1.50;;;;;;;18.34;28.60;101912.30;107419;1254;110000;-60
2023/05/02 08:48:20;;;;;;;9.20;1.70;;;;;;;18.46;28.05;101902.77;107518;1254;108649;-61
2023/05/02 08:50:51;;;;;;;5.20;1.50;;;;;;;18.58;28.44;101898.27;107517;1254;97909;-59
2023/05/02 08:53:20;;;;;;;8.70;1.30;;;;;;;18.74;27.87;101902.63;107490;1256;98439;-60
2023/05/02 08:55:50;;;;;;;8.30;2.00;;;;;;;18.90;27.48;101904.42;107611;1254;112234;-59
2023/05/02 08:58:18;;;;;;;7.30;1.30;;;;;;;19.07;27.38;101901.67;107616;1256;110090;-60
2023/05/02 09:00:47;;;;;;;5.00;1.30;;;;;;;19.25;27.61;101894.16;107599;1252;108839;-61
2023/05/02 09:03:30;;;;;;;12.40;1.30;;;;;;;19.47;27.61;101888.98;107588;1255;97809;-60
2023/05/02 09:06:06;;;;;;;3.80;1.30;;;;;;;19.75;25.83;101889.84;107601;1254;97822;-61
2023/05/02 09:08:36;;;;;;;8.20;1.70;;;;;;;19.92;25.60;101889.02;107573;1251;111873;-61
2023/05/02 09:11:06;;;;;;;3.30;1.40;;;;;;;20.08;25.06;101884.20;107645;1254;110598;-61
2023/05/02 09:13:36;;;;;;;4.00;1.50;;;;;;;20.22;25.32;101871.51;107632;1252;108576;-61
2023/05/02 09:16:06;;;;;;;10.10;2.90;;;;;;;20.47;25.46;101875.33;107572;1254;97880;-60
2023/05/02 09:18:38;;;;;;;7.60;1.40;;;;;;;20.77;25.26;101878.28;107476;1254;97822;-63
2023/05/02 09:21:12;;;;;;;4.00;2.20;;;;;;;21.16;24.58;101872.84;107535;1256;112306;-59
2023/05/02 09:23:51;;;;;;;3.90;1.50;;;;;;;21.59;24.90;101873.15;107564;1254;109217;-61
2023/05/02 09:26:31;;;;;;;11.10;1.90;;;;;;;22.13;24.43;101868.40;107560;1254;107600;-61
2023/05/02 09:29:02;;;;;;;10.10;1.50;;;;;;;22.71;23.52;101869.40;107490;1254;97829;-60
2023/05/02 09:31:35;;;;;;;7.70;1.40;;;;;;;23.15;23.73;101870.20;107583;1255;97903;-60
2023/05/02 09:34:23;;;;;;;8.00;1.70;;;;;;;23.74;23.53;101867.84;107614;1256;111857;-61
2023/05/02 09:36:54;;;;;;;7.90;1.50;;;;;;;24.29;22.49;101866.93;107556;1254;109958;-61
2023/05/02 09:39:27;;;;;;;5.80;1.40;;;;;;;24.80;22.49;101867.19;107598;1254;109160;-62
2023/05/02 09:41:57;;;;;;;5.00;1.60;;;;;;;25.31;21.85;101858.04;107568;1254;97931;-62
2023/05/02 09:44:36;;;;;;;8.40;1.70;;;;;;;25.83;21.93;101859.80;107613;1254;97806;-60
2023/05/02 09:47:07;;;;;;;6.50;1.70;;;;;;;26.42;21.16;101859.68;107579;1255;111276;-60
2023/05/02 09:49:45;;;;;;;11.80;3.00;;;;;;;26.87;20.66;101856.13;107560;1251;109636;-60
2023/05/02 09:52:27;;;;;;;8.10;1.70;;;;;;;27.24;19.46;101855.93;107516;1256;108169;-59
2023/05/02 09:54:56;;;;;;;7.10;2.20;;;;;;;27.48;18.55;101844.11;107530;1254;97720;-61
2023/05/02 09:57:40;;;;;;;13.80;1.60;;;;;;;27.61;19.04;101844.48;107483;1255;98466;-61
2023/05/02 10:00:09;;;;;;;;;;;;;;;27.84;18.45;101850.08;107643;1251;112105;-59
2023/05/02 10:02:41;;;;;;;5.80;1.30;;;;;;;28.12;18.76;101843.89;107518;1251;109731;-61
2023/05/02 10:05:12;;;;;;;9.20;1.70;;;;;;;28.46;17.95;101839.36;107488;1256;108286;-61
2023/05/02 10:07:40;;;;;;;6.10;1.60;;;;;;;28.73;18.35;101836.25;107528;1257;97899;-60
2023/05/02 10:10:16;;;;;;;12.90;1.90;;;;;;;29.18;18.15;101834.67;107502;1256;97830;-60
2023/05/02 10:12:51;;;;;;;12.90;1.50;;;;;;;29.58;17.35;101837.29;107597;1251;111358;-62
2023/05/02 10:15:25;;;;;;;8.20;1.40;;;;;;;29.81;17.00;101832.42;107473;1254;109409;-60
2023/05/02 10:17:57;;;;;;;3.80;1.30;;;;;;;30.16;16.95;101831.48;107525;1254;108226;-62
2023/05/02 10:20:33;;;;;;;7.60;1.20;;;;;;;30.54;16.42;101829.71;107565;1254;97938;-58
2023/05/02 10:23:02;;;;;;;12.10;1.70;;;;;;;30.82;15.40;101836.08;107589;1254;97920;-60
2023/05/02 10:25:32;;;;;;;4.50;1.10;;;;;;;30.81;15.96;101830.29;107636;1254;112308;-60
2023/05/02 10:28:02;;;;;;;10.40;1.40;;;;;;;31.01;15.57;101825.83;107551;1256;110113;-60
2023/05/02 10:30:30;;;;;;;6.30;0.90;;;;;;;31.21;15.17;101827.61;107577;1256;107527;-62
2023/05/02 10:33:01;;;;;;;3.10;1.40;;;;;;;31.31;14.55;101827.16;107635;1256;97920;-61
2023/05/02 10:35:30;;;;;;;4.50;1.20;;;;;;;31.37;14.93;101821.70;107568;1254;99005;-60
2023/05/02 10:38:00;;;;;;;7.80;1.40;;;;;;;31.76;15.20;101813.23;107655;1255;111360;-61
2023/05/02 10:40:29;;;;;;;10.40;1.40;;;;;;;32.12;14.56;101813.89;107602;1255;110373;-61
2023/05/02 10:42:58;;;;;;;6.10;1.70;;;;;;;32.15;14.77;101808.80;107558;1256;109440;-60
2023/05/02 10:45:30;;;;;;;2.00;1.00;;;;;;;32.34;14.40;101814.92;107571;1251;98045;-60
2023/05/02 10:48:18;;;;;;;28.90;2.50;;;;;;;32.48;14.58;101812.77;107549;1254;97706;-62
2023/05/02 10:50:55;;;;;;;9.70;1.50;;;;;;;32.64;14.31;101817.81;107573;1251;111823;-62
2023/05/02 10:53:25;;;;;;;5.60;1.70;;;;;;;32.81;13.95;101816.08;107519;1254;110558;-62
2023/05/02 10:56:25;;;;;;;3.30;1.10;;;;;;;33.05;14.04;101809.70;107519;1251;108704;-61
2023/05/02 10:59:26;;;;;;;7.30;1.40;;;;;;;33.26;13.73;101804.73;107427;1251;97828;-61
2023/05/02 11:01:54;;;;;;;8.70;1.40;;;;;;;33.64;13.87;101803.66;107554;1252;97707;-59
2023/05/02 11:04:23;;;;;;;3.30;1.20;;;;;;;33.91;12.80;101808.74;107558;1251;111395;-61
2023/05/02 11:07:01;;;;;;;7.50;1.10;;;;;;;33.94;13.21;101798.38;107539;1257;108450;-60
2023/05/02 11:09:32;;;;;;;8.20;1.00;;;;;;;34.07;12.83;101799.51;107506;1251;109423;-60
2023/05/02 11:12:01;;;;;;;5.90;1.30;;;;;;;34.31;12.62;101799.18;107555;1256;97821;-61
2023/05/02 11:14:38;;;;;;;6.20;0.90;;;;;;;34.47;12.25;101798.59;107522;1251;97832;-59
2023/05/02 11:17:08;;;;;;;7.30;1.00;;;;;;;34.40;12.20;101798.34;107584;1254;110929;-60
2023/05/02 11:19:36;;;;;;;5.90;1.40;;;;;;;34.42;13.16;101795.00;107585;1255;110177;-60
2023/05/02 11:22:20;;;;;;;3.80;1.10;;;;;;;34.62;12.55;101799.78;107600;1257;107914;-63
2023/05/02 11:24:50;;;;;;;6.90;0.90;;;;;;;34.63;11.52;101798.77;107546;1251;97819;-59
2023/05/02 11:27:37;;;;;;;7.60;1.40;;;;;;;34.68;11.28;101793.75;107627;1251;97828;-60
2023/05/02 11:30:09;;;;;;;8.30;1.40;;;;;;;34.80;11.67;101794.56;107592;1251;112457;-62